Time;durP1;ratioP1;P1;durP2;ratioP2;P2;SDS_P1;SDS_P2;PMS_P1;PMS_P2;Temp;Humidity;BMP_temperature;BMP_pressure;BME280_temperature;BME280_humidity;BME280_pressure;Samples;Min_cycle;Max_cycle;Signal;HPM_P1;HPM_P2
2022/01/12 00:00:00;;;;;;;89.68;29.88;;;;;;;-4.99;73.28;100368.75;5111580;28;20081;-66
2022/01/12 00:02:25;;;;;;;83.70;28.55;;;;;;;-4.91;73.78;100376.03;5111526;28;20395;-67
2022/01/12 00:04:52;;;;;;;93.35;30.85;;;;;;;-4.86;73.80;100368.41;5111160;28;20080;-66
2022/01/12 00:07:17;;;;;;;89.68;29.42;;;;;;;-4.86;73.61;100365.72;5110864;28;20043;-67
2022/01/12 00:09:43;;;;;;;97.47;32.15;;;;;;;-4.80;73.54;100378.50;5111100;28;20107;-66
2022/01/12 00:12:09;;;;;;;87.55;29.13;;;;;;;-4.79;73.08;100368.63;5111255;28;20429;-67
2022/01/12 00:14:34;;;;;;;86.07;30.20;;;;;;;-4.79;73.11;100366.81;5111144;28;20032;-66
2022/01/12 00:16:59;;;;;;;97.25;32.75;;;;;;;-4.75;73.10;100369.19;5092456;28;20023;-67
2022/01/12 00:19:27;;;;;;;93.70;34.15;;;;;;;-4.77;72.93;100355.94;5110789;28;20094;-67
2022/01/12 00:21:55;;;;;;;91.28;32.53;;;;;;;-4.72;73.20;100371.56;5111072;28;20122;-66
2022/01/12 00:24:21;;;;;;;88.95;31.85;;;;;;;-4.73;73.25;100365.38;5111185;28;20040;-67
2022/01/12 00:34:58;;;;;;;82.28;28.90;;;;;;;-4.71;72.93;100376.78;5115140;28;20080;-66
2022/01/12 00:37:24;;;;;;;77.63;26.95;;;;;;;-4.70;73.09;100375.78;5115031;28;20031;-67
2022/01/12 00:39:49;;;;;;;79.70;28.80;;;;;;;-4.68;73.02;100375.63;5114889;28;20034;-66
2022/01/12 00:42:15;;;;;;;82.00;28.95;;;;;;;-4.69;72.99;100373.97;5114960;28;20027;-67
2022/01/12 00:44:45;;;;;;;76.53;29.25;;;;;;;-4.66;72.97;100374.50;5114921;28;20059;-67
2022/01/12 00:47:10;;;;;;;83.63;29.92;;;;;;;-4.60;73.00;100374.88;5114516;28;20016;-67
2022/01/12 00:49:36;;;;;;;79.65;28.50;;;;;;;-4.53;73.05;100375.97;5114858;28;20107;-67
2022/01/12 00:52:02;;;;;;;76.55;27.33;;;;;;;-4.53;72.84;100378.66;5114775;28;20426;-67
2022/01/12 00:54:28;;;;;;;75.40;28.33;;;;;;;-4.51;72.85;100376.66;5114893;28;20027;-67
2022/01/12 00:56:53;;;;;;;80.75;28.52;;;;;;;-4.51;72.69;100377.50;5114082;28;20069;-66
2022/01/12 00:59:19;;;;;;;74.22;27.75;;;;;;;-4.51;72.60;100380.19;5114528;28;20119;-66
2022/01/12 01:01:44;;;;;;;69.38;25.25;;;;;;;-4.50;72.91;100373.81;5114280;28;20031;-66
2022/01/12 01:04:10;;;;;;;67.32;25.48;;;;;;;-4.49;72.75;100380.03;5114776;28;20490;-66
2022/01/12 01:06:36;;;;;;;70.13;25.60;;;;;;;-4.50;72.91;100373.00;5114133;28;20030;-66
2022/01/12 01:09:04;;;;;;;65.57;23.90;;;;;;;-4.47;72.93;100372.66;5114419;28;21003;-66
2022/01/12 01:11:31;;;;;;;72.60;24.35;;;;;;;-4.45;72.72;100376.03;5094667;28;20063;-67
2022/01/12 01:14:03;;;;;;;67.05;24.92;;;;;;;-4.45;72.58;100381.41;5114213;28;20024;-66
2022/01/12 01:27:34;;;;;;;59.53;22.25;;;;;;;-4.32;73.17;100382.88;5104093;28;20047;-67
2022/01/12 01:30:00;;;;;;;54.70;21.88;;;;;;;-4.31;72.72;100385.41;5113285;28;20027;-66
2022/01/12 01:32:26;;;;;;;59.33;23.67;;;;;;;-4.29;72.59;100379.91;5113853;28;20036;-67
2022/01/12 01:34:52;;;;;;;57.97;23.42;;;;;;;-4.25;72.56;100386.63;5113648;28;20081;-67
2022/01/12 01:37:17;;;;;;;63.53;24.92;;;;;;;-4.25;72.00;100378.59;5113005;28;20032;-67
2022/01/12 01:39:43;;;;;;;69.95;26.60;;;;;;;-4.26;72.48;100377.75;5112529;28;20027;-67
2022/01/12 01:42:15;;;;;;;68.22;28.27;;;;;;;-4.26;72.74;100375.06;5112375;28;20047;-67
2022/01/12 01:55:26;;;;;;;67.80;26.60;;;;;;;-4.21;72.75;100386.16;5112216;28;20164;-67
2022/01/12 01:57:51;;;;;;;70.88;26.58;;;;;;;-4.17;72.63;100373.34;5112202;28;20161;-67
2022/01/12 02:00:22;;;;;;;74.00;27.38;;;;;;;-4.16;72.62;100375.03;5112141;28;20023;-67
2022/01/12 02:02:48;;;;;;;64.20;26.80;;;;;;;-4.13;72.42;100371.19;5112251;28;20418;-67
2022/01/12 02:05:14;;;;;;;74.93;26.65;;;;;;;-4.15;72.44;100379.38;5112109;28;20024;-67
2022/01/12 02:07:40;;;;;;;73.50;28.70;;;;;;;-4.13;72.72;100379.22;5112218;28;20027;-67
2022/01/12 02:10:06;;;;;;;67.07;25.88;;;;;;;-4.11;72.23;100382.59;5112315;28;20099;-67
2022/01/12 02:12:31;;;;;;;66.60;24.95;;;;;;;-4.10;72.52;100373.56;5111947;28;20141;-67
2022/01/12 02:14:58;;;;;;;69.05;26.75;;;;;;;-4.08;72.35;100363.53;5111956;28;20019;-67
2022/01/12 02:17:36;;;;;;;72.03;26.45;;;;;;;-4.05;72.57;100371.25;5093097;28;20039;-67
2022/01/12 02:36:27;;;;;;;57.25;23.25;;;;;;;-4.03;72.22;100363.91;5110662;28;20180;-67
2022/01/12 02:41:39;;;;;;;61.22;23.13;;;;;;;-4.04;72.28;100364.91;5110144;28;20078;-67
2022/01/12 02:54:47;;;;;;;31.30;11.67;;;;;;;-4.21;71.58;100361.22;5111385;28;20038;-68
2022/01/12 02:57:13;;;;;;;27.63;13.30;;;;;;;-4.24;72.08;100358.84;5090147;28;20136;-68
2022/01/12 02:59:49;;;;;;;27.77;12.63;;;;;;;-4.24;71.81;100358.84;5111481;28;20482;-68
2022/01/12 03:02:27;;;;;;;29.58;13.25;;;;;;;-4.29;71.36;100353.97;5110988;28;20387;-67
2022/01/12 03:05:47;;;;;;;27.15;12.07;;;;;;;-4.33;71.98;100357.94;5109037;28;20461;-67
2022/01/12 03:07:40;;;;;;;30.20;12.32;;;;;;;-4.36;71.52;100355.56;5099602;28;20063;-67
2022/01/12 03:10:07;;;;;;;27.17;12.30;;;;;;;-4.36;71.78;100364.44;5110964;28;20023;-68
2022/01/12 03:12:36;;;;;;;40.65;16.42;;;;;;;-4.31;72.04;100365.81;5110887;28;20031;-68
2022/01/12 03:15:02;;;;;;;68.90;25.70;;;;;;;-4.31;72.09;100353.28;5111071;28;20099;-68
2022/01/12 03:17:27;;;;;;;38.13;16.40;;;;;;;-4.29;71.92;100362.00;5110417;28;20145;-67
2022/01/12 03:19:52;;;;;;;30.13;12.80;;;;;;;-4.27;72.18;100359.16;5110284;28;20039;-67
2022/01/12 03:22:18;;;;;;;29.42;13.50;;;;;;;-4.26;71.35;100361.66;5110581;28;20467;-67
2022/01/12 03:24:43;;;;;;;29.45;12.10;;;;;;;-4.25;71.84;100370.56;5110807;28;20027;-68
2022/01/12 03:27:13;;;;;;;25.73;11.43;;;;;;;-4.25;71.55;100370.56;5109937;28;20019;-68
2022/01/12 03:29:42;;;;;;;22.92;11.20;;;;;;;-4.26;71.68;100363.53;5091451;28;20067;-67
2022/01/12 03:32:10;;;;;;;26.98;12.27;;;;;;;-4.29;71.86;100369.19;5111211;27;20023;-68
2022/01/12 03:34:37;;;;;;;29.33;13.77;;;;;;;-4.31;71.59;100373.84;5110460;28;20031;-68
2022/01/12 03:39:47;;;;;;;34.13;14.25;;;;;;;-4.34;71.12;100375.84;5110327;28;20161;-69
2022/01/12 03:42:12;;;;;;;32.60;13.77;;;;;;;-4.37;71.36;100380.66;5110500;28;20024;-68
2022/01/12 03:44:38;;;;;;;37.38;15.88;;;;;;;-4.37;71.37;100375.31;5110311;28;20024;-67
2022/01/12 03:47:03;;;;;;;25.63;11.23;;;;;;;-4.38;71.19;100376.31;5091491;28;20102;-67
2022/01/12 03:49:29;;;;;;;39.60;15.57;;;;;;;-4.40;71.18;100371.06;5109818;28;20016;-67
2022/01/12 03:51:54;;;;;;;68.00;25.60;;;;;;;-4.39;70.68;100377.28;5110235;28;20103;-67
2022/01/12 03:54:20;;;;;;;53.95;19.58;;;;;;;-4.41;70.75;100379.28;5110094;28;20102;-68
2022/01/12 03:56:46;;;;;;;63.08;23.38;;;;;;;-4.45;70.92;100372.53;5109657;28;20020;-68
2022/01/12 03:59:11;;;;;;;35.60;15.63;;;;;;;-4.50;70.21;100368.47;5092175;28;20054;-67
2022/01/12 04:01:37;;;;;;;44.90;21.88;;;;;;;-4.50;71.03;100370.31;5109570;28;20024;-67
2022/01/12 04:04:07;;;;;;;64.85;33.47;;;;;;;-4.49;71.18;100370.16;5110089;28;20035;-68
2022/01/12 04:09:17;;;;;;;58.60;26.85;;;;;;;-4.53;70.51;100371.44;5109148;28;20495;-68
2022/01/12 04:11:43;;;;;;;55.38;21.98;;;;;;;-4.54;70.88;100372.44;5090852;28;20032;-67
2022/01/12 04:14:09;;;;;;;58.13;21.17;;;;;;;-4.53;70.79;100382.16;5109727;28;20054;-68
2022/01/12 04:16:36;;;;;;;34.35;13.43;;;;;;;-4.54;70.87;100383.16;5109616;28;20597;-67
2022/01/12 04:19:02;;;;;;;31.20;12.48;;;;;;;-4.53;71.07;100375.97;5109912;28;20061;-68
2022/01/12 04:21:29;;;;;;;33.50;13.63;;;;;;;-4.60;70.86;100373.03;5091466;28;20023;-67
2022/01/12 04:23:58;;;;;;;43.35;17.27;;;;;;;-4.64;70.72;100379.69;5109649;28;20474;-67
2022/01/12 04:26:25;;;;;;;36.83;14.85;;;;;;;-4.66;70.88;100379.84;5109753;28;20078;-68
2022/01/12 04:28:51;;;;;;;46.25;21.92;;;;;;;-4.65;70.48;100386.88;5109772;28;20019;-68
2022/01/12 04:31:17;;;;;;;56.22;30.63;;;;;;;-4.61;70.79;100382.06;5109918;28;20024;-68
2022/01/12 04:33:43;;;;;;;36.00;17.42;;;;;;;-4.59;71.19;100380.06;5109543;28;20027;-68
2022/01/12 04:36:10;;;;;;;32.17;12.05;;;;;;;-4.61;71.00;100374.03;5091296;28;20024;-68
2022/01/12 04:38:37;;;;;;;31.52;12.30;;;;;;;-4.60;70.76;100377.56;5109681;28;20032;-67
2022/01/12 04:41:06;;;;;;;44.25;15.10;;;;;;;-4.62;70.69;100375.03;5109953;28;20048;-67
2022/01/12 04:43:32;;;;;;;33.85;12.45;;;;;;;-4.66;70.72;100379.84;5109796;28;20040;-68
2022/01/12 04:48:36;;;;;;;34.28;12.50;;;;;;;-4.71;70.88;100370.59;5109949;28;20062;-68
2022/01/12 04:51:01;;;;;;;28.67;12.40;;;;;;;-4.65;71.13;100369.97;5110302;28;20023;-67
2022/01/12 04:53:27;;;;;;;31.55;11.98;;;;;;;-4.60;71.04;100373.03;5109892;28;20042;-68
2022/01/12 04:55:54;;;;;;;31.85;12.18;;;;;;;-4.60;70.86;100367.69;5110024;28;20026;-68
2022/01/12 04:58:21;;;;;;;34.17;13.70;;;;;;;-4.53;70.98;100374.13;5109844;28;20467;-67
2022/01/12 05:00:48;;;;;;;33.35;14.98;;;;;;;-4.48;70.89;100384.38;5109990;28;20032;-67
2022/01/12 05:13:55;;;;;;;33.17;13.88;;;;;;;-4.30;70.65;100379.06;5112879;28;20046;-68
2022/01/12 05:16:22;;;;;;;34.75;13.80;;;;;;;-4.29;70.56;100379.91;5113062;28;20147;-68
2022/01/12 05:18:50;;;;;;;28.13;11.82;;;;;;;-4.31;70.27;100382.75;5113251;28;20027;-68
2022/01/12 05:21:17;;;;;;;27.25;12.10;;;;;;;-4.30;70.41;100387.09;5113393;28;20028;-68
2022/01/12 05:23:43;;;;;;;33.53;13.38;;;;;;;-4.30;70.38;100384.44;5113304;28;20031;-68
2022/01/12 05:26:09;;;;;;;35.03;14.07;;;;;;;-4.30;70.22;100379.06;5112784;28;20570;-67
2022/01/12 05:28:35;;;;;;;31.83;13.32;;;;;;;-4.29;70.42;100394.16;5113292;28;21311;-67
2022/01/12 05:31:02;;;;;;;65.05;21.80;;;;;;;-4.25;70.54;100392.81;5113343;28;20043;-68
2022/01/12 05:33:28;;;;;;;35.50;13.43;;;;;;;-4.25;70.32;100387.47;5113335;28;20031;-68
2022/01/12 05:35:56;;;;;;;40.38;15.05;;;;;;;-4.23;70.53;100390.00;5112338;28;20491;-68
2022/01/12 05:38:22;;;;;;;33.08;13.80;;;;;;;-4.24;70.03;100396.38;5113366;28;20027;-68
2022/01/12 05:40:52;;;;;;;86.85;24.95;;;;;;;-4.26;70.41;100391.13;5112909;28;20040;-68
2022/01/12 05:43:24;;;;;;;88.40;24.50;;;;;;;-4.24;70.21;100393.69;5113435;28;20102;-67
2022/01/12 05:45:51;;;;;;;67.93;20.77;;;;;;;-4.25;70.21;100400.88;5112751;28;20024;-67
2022/01/12 05:50:42;;;;;;;38.25;14.98;;;;;;;-4.26;70.66;100407.22;5113170;28;20041;-68
2022/01/12 05:53:08;;;;;;;36.60;15.00;;;;;;;-4.27;69.92;100405.53;5110552;28;20032;-68
2022/01/12 05:55:34;;;;;;;30.55;12.98;;;;;;;-4.25;70.48;100410.75;5112181;28;20032;-68
2022/01/12 05:57:59;;;;;;;36.83;14.30;;;;;;;-4.24;70.02;100407.91;5110603;27;20023;-70
2022/01/12 06:00:26;;;;;;;38.50;16.05;;;;;;;-4.25;70.14;100411.59;5094601;28;20027;-67
2022/01/12 06:02:52;;;;;;;33.30;13.75;;;;;;;-4.17;70.43;100418.88;5113572;28;20027;-70
2022/01/12 06:05:19;;;;;;;29.27;12.38;;;;;;;-4.13;70.38;100427.44;5087817;28;20028;-71
2022/01/12 06:07:46;;;;;;;39.33;16.30;;;;;;;-4.09;70.25;100421.66;5088945;28;20111;-68
2022/01/12 06:10:14;;;;;;;35.45;15.48;;;;;;;-4.09;69.83;100424.34;5112094;28;20027;-68
2022/01/12 06:12:40;;;;;;;31.90;13.50;;;;;;;-4.13;69.81;100409.56;5091556;28;20533;-70
2022/01/12 06:15:07;;;;;;;30.13;12.88;;;;;;;-4.11;69.82;100417.44;5112997;28;20049;-68
2022/01/12 06:17:32;;;;;;;34.38;15.18;;;;;;;-4.13;70.19;100417.59;5110009;28;20106;-67
2022/01/12 06:19:58;;;;;;;31.98;13.90;;;;;;;-4.04;69.99;100421.19;5112617;28;20047;-67
2022/01/12 06:22:24;;;;;;;32.05;13.65;;;;;;;-4.03;69.61;100422.88;5111639;28;20023;-68
2022/01/12 06:24:50;;;;;;;33.65;14.63;;;;;;;-4.00;70.43;100427.94;5109996;28;20076;-68
2022/01/12 06:27:19;;;;;;;32.47;13.85;;;;;;;-4.00;69.95;100441.34;5111680;28;20039;-68
2022/01/12 06:30:01;;;;;;;30.30;12.90;;;;;;;-3.99;69.87;100434.97;5111865;28;20498;-70
2022/01/12 06:32:27;;;;;;;28.33;12.55;;;;;;;-4.06;69.87;100429.38;5112385;28;20479;-71
2022/01/12 06:34:53;;;;;;;26.23;12.43;;;;;;;-4.09;69.60;100436.88;5111701;28;20035;-68
2022/01/12 06:37:19;;;;;;;29.20;12.50;;;;;;;-4.13;69.41;100432.81;5111530;28;20024;-70
2022/01/12 06:39:44;;;;;;;31.42;12.35;;;;;;;-4.11;69.48;100429.00;5111615;28;20046;-70
2022/01/12 06:42:10;;;;;;;28.13;12.45;;;;;;;-4.08;69.92;100433.19;5092487;28;20051;-67
2022/01/12 06:44:35;;;;;;;31.52;12.82;;;;;;;-4.04;69.85;100442.63;5112113;28;20055;-69
2022/01/12 06:47:03;;;;;;;30.98;13.02;;;;;;;-4.00;69.91;100444.00;5111000;28;20076;-68
2022/01/12 06:49:28;;;;;;;39.22;14.07;;;;;;;-4.01;69.71;100441.47;5112122;28;20029;-69
2022/01/12 06:51:54;;;;;;;41.85;16.50;;;;;;;-4.09;69.25;100432.38;5111767;28;20024;-67
2022/01/12 06:54:19;;;;;;;44.92;18.55;;;;;;;-4.11;69.63;100439.72;5111879;28;20065;-70
2022/01/12 06:56:45;;;;;;;45.17;20.98;;;;;;;-4.12;69.27;100443.41;5110440;28;20035;-69
2022/01/12 06:59:11;;;;;;;45.70;18.90;;;;;;;-4.18;69.67;100446.69;5111988;28;20019;-67
2022/01/12 07:01:36;;;;;;;40.72;17.33;;;;;;;-4.20;69.55;100457.53;5109365;28;20111;-66
2022/01/12 07:04:02;;;;;;;39.08;15.38;;;;;;;-4.24;69.73;100448.09;5111473;28;20035;-66
2022/01/12 07:06:27;;;;;;;38.35;17.55;;;;;;;-4.29;69.45;100441.53;5111015;28;20579;-65
2022/01/12 07:08:52;;;;;;;48.97;22.98;;;;;;;-4.24;69.67;100449.94;5110912;28;20019;-65
2022/01/12 07:11:18;;;;;;;58.55;31.17;;;;;;;-4.20;69.46;100440.63;5111006;28;20047;-65
2022/01/12 07:13:44;;;;;;;54.75;26.20;;;;;;;-4.14;69.90;100450.75;5111254;28;20119;-66
2022/01/12 07:16:09;;;;;;;40.63;19.10;;;;;;;-4.09;69.64;100459.19;5110986;28;20027;-68
2022/01/12 07:18:35;;;;;;;41.92;21.15;;;;;;;-4.11;69.92;100454.94;5110788;28;20024;-70
2022/01/12 07:21:00;;;;;;;40.17;20.17;;;;;;;-4.11;69.71;100457.63;5111713;28;20024;-70
2022/01/12 07:23:27;;;;;;;39.25;19.00;;;;;;;-4.08;69.51;100454.66;5111571;28;20031;-69
2022/01/12 07:25:53;;;;;;;46.35;25.30;;;;;;;-4.04;69.54;100464.06;5110290;28;20042;-67
2022/01/12 07:28:20;;;;;;;63.45;35.45;;;;;;;-3.96;69.69;100453.44;5111120;28;20479;-66
2022/01/12 07:30:46;;;;;;;59.88;33.58;;;;;;;-3.90;69.71;100462.69;5110766;28;20119;-67
2022/01/12 07:33:12;;;;;;;67.35;33.90;;;;;;;-3.92;69.21;100453.97;5111150;28;20024;-68
2022/01/12 07:35:38;;;;;;;71.10;36.15;;;;;;;-3.83;69.48;100463.78;5091119;28;20020;-68
2022/01/12 07:38:03;;;;;;;52.90;27.63;;;;;;;-3.71;70.12;100468.94;5110391;28;20080;-67
2022/01/12 07:40:29;;;;;;;74.78;42.25;;;;;;;-3.62;69.90;100462.63;5110657;28;20108;-67
2022/01/12 07:42:55;;;;;;;59.53;29.98;;;;;;;-3.64;69.35;100459.25;5111624;27;20485;-69
2022/01/12 07:45:21;;;;;;;64.90;36.65;;;;;;;-3.60;69.79;100456.13;5110422;28;20052;-67
2022/01/12 07:47:47;;;;;;;75.28;39.05;;;;;;;-3.51;69.67;100461.56;5110648;28;20094;-67
2022/01/12 07:50:14;;;;;;;74.07;36.97;;;;;;;-3.49;69.35;100473.81;5110980;28;20055;-70
2022/01/12 07:52:39;;;;;;;100.38;45.63;;;;;;;-3.53;68.87;100471.59;5108360;28;20850;-70
2022/01/12 07:55:06;;;;;;;83.85;36.03;;;;;;;-3.59;69.00;100479.25;5105430;28;20041;-66
2022/01/12 07:57:32;;;;;;;90.40;40.70;;;;;;;-3.62;69.35;100481.38;5105958;28;20062;-67
2022/01/12 07:59:57;;;;;;;54.25;23.88;;;;;;;-3.59;69.14;100484.63;5108437;28;20051;-66
2022/01/12 08:02:23;;;;;;;47.58;20.15;;;;;;;-3.49;69.15;100500.63;5109341;28;20028;-69
2022/01/12 08:04:50;;;;;;;43.65;17.13;;;;;;;-3.37;69.24;100495.03;5107702;28;20538;-68
2022/01/12 08:07:15;;;;;;;52.58;20.67;;;;;;;-3.29;69.02;100506.69;5108294;28;20475;-66
2022/01/12 08:09:42;;;;;;;54.08;22.35;;;;;;;-3.32;68.41;100506.16;5108280;28;20028;-66
2022/01/12 08:12:08;;;;;;;68.55;27.50;;;;;;;-3.36;68.65;100499.41;5108115;28;20068;-67
2022/01/12 08:14:34;;;;;;;50.80;21.80;;;;;;;-3.30;68.37;100496.13;5108773;28;20539;-68
2022/01/12 08:17:00;;;;;;;49.30;19.80;;;;;;;-3.23;68.75;100499.00;5109920;28;20016;-69
2022/01/12 08:19:27;;;;;;;90.22;33.95;;;;;;;-3.17;68.51;100493.03;5106887;28;20545;-65
2022/01/12 08:21:52;;;;;;;47.42;19.15;;;;;;;-3.09;68.78;100501.13;5106544;28;20024;-67
2022/01/12 08:24:18;;;;;;;43.50;17.20;;;;;;;-2.97;68.61;100501.72;5107583;28;20529;-67
2022/01/12 08:26:44;;;;;;;35.35;14.40;;;;;;;-2.94;68.63;100492.50;5088254;28;20046;-66
2022/01/12 08:29:13;;;;;;;30.38;11.88;;;;;;;-2.93;68.36;100496.88;5107348;28;20019;-65
2022/01/12 08:31:38;;;;;;;29.02;12.85;;;;;;;-2.91;68.53;100503.78;5100324;28;20067;-68
2022/01/12 08:34:04;;;;;;;36.80;13.45;;;;;;;-2.93;68.12;100494.19;5104651;28;20051;-67
2022/01/12 08:36:30;;;;;;;36.67;14.02;;;;;;;-2.96;67.90;100503.41;5106674;28;20590;-70
2022/01/12 08:38:57;;;;;;;55.00;23.77;;;;;;;-2.95;67.93;100504.22;5108503;28;20020;-68
2022/01/12 08:41:23;;;;;;;46.88;19.30;;;;;;;-2.96;67.72;100494.50;5108570;28;20040;-67
2022/01/12 08:43:49;;;;;;;36.58;13.80;;;;;;;-2.93;67.57;100507.59;5103989;28;20035;-67
2022/01/12 08:46:14;;;;;;;32.83;14.45;;;;;;;-2.90;67.66;100505.47;5107966;28;20076;-70
2022/01/12 08:48:40;;;;;;;34.72;13.45;;;;;;;-2.86;67.59;100504.16;5109050;28;20506;-67
2022/01/12 08:51:05;;;;;;;32.42;14.10;;;;;;;-2.81;67.26;100500.13;5112613;28;20027;-70
2022/01/12 08:53:31;;;;;;;39.63;15.82;;;;;;;-2.73;67.76;100508.25;5112371;28;20036;-66
2022/01/12 08:55:56;;;;;;;34.97;14.68;;;;;;;-2.63;67.77;100503.59;5110960;28;20034;-68
2022/01/12 08:58:21;;;;;;;33.58;13.40;;;;;;;-2.56;67.23;100509.16;5111861;28;20088;-67
2022/01/12 09:00:47;;;;;;;41.42;17.17;;;;;;;-2.55;67.42;100500.97;5110049;27;20127;-71
2022/01/12 09:03:13;;;;;;;39.65;15.88;;;;;;;-2.46;67.35;100495.63;5110338;28;20061;-68
2022/01/12 09:05:39;;;;;;;33.65;13.82;;;;;;;-2.40;67.51;100501.22;5111024;28;20542;-68
2022/01/12 09:08:05;;;;;;;32.40;14.73;;;;;;;-2.30;67.20;100494.88;5111507;28;20038;-68
2022/01/12 09:10:31;;;;;;;41.78;19.38;;;;;;;-2.24;66.89;100494.19;5111081;28;20023;-67
2022/01/12 09:12:56;;;;;;;39.72;17.05;;;;;;;-2.18;67.11;100485.47;5111295;28;20024;-67
2022/01/12 09:15:25;;;;;;;38.72;15.63;;;;;;;-2.14;67.21;100484.16;5110321;28;20032;-66
2022/01/12 09:17:54;;;;;;;33.28;13.85;;;;;;;-2.12;66.84;100479.47;5111450;28;20110;-68
2022/01/12 09:20:20;;;;;;;36.45;17.10;;;;;;;-2.05;66.54;100468.06;5111806;28;20050;-67
2022/01/12 09:22:46;;;;;;;32.90;15.30;;;;;;;-1.96;66.60;100467.09;5113214;27;20027;-67
2022/01/12 09:25:12;;;;;;;38.90;17.48;;;;;;;-1.96;66.43;100464.38;5112173;28;20034;-67
2022/01/12 09:27:39;;;;;;;37.88;15.57;;;;;;;-1.95;66.45;100471.44;5113220;27;20506;-68
2022/01/12 09:30:09;;;;;;;31.25;13.75;;;;;;;-1.89;66.38;100472.63;5110814;28;20402;-67
2022/01/12 09:32:35;;;;;;;37.08;16.67;;;;;;;-1.99;66.02;100472.78;5109240;28;20585;-66
2022/01/12 09:35:01;;;;;;;34.88;14.55;;;;;;;-2.07;65.83;100483.50;5111736;27;20140;-66
2022/01/12 09:37:27;;;;;;;34.67;15.73;;;;;;;-1.98;66.20;100463.72;5110847;28;20036;-71
2022/01/12 09:39:53;;;;;;;33.92;14.02;;;;;;;-1.98;65.79;100471.78;5109309;28;20087;-67
2022/01/12 09:42:18;;;;;;;31.58;12.95;;;;;;;-1.88;66.03;100472.47;5108116;28;20660;-67
2022/01/12 09:44:46;;;;;;;35.65;15.10;;;;;;;-1.85;66.02;100468.59;5109954;28;20410;-67
2022/01/12 09:47:12;;;;;;;45.60;17.48;;;;;;;-1.88;65.31;100475.16;5107922;28;20110;-67
2022/01/12 09:49:37;;;;;;;30.98;13.98;;;;;;;-1.82;65.53;100473.66;5110751;27;20098;-69
2022/01/12 09:52:04;;;;;;;38.88;16.40;;;;;;;-1.84;65.51;100472.97;5111464;27;20039;-69
2022/01/12 09:54:29;;;;;;;43.03;16.55;;;;;;;-1.96;64.67;100475.16;5111094;28;20028;-68
2022/01/12 09:56:57;;;;;;;29.55;12.68;;;;;;;-2.03;64.77;100482.19;5109076;28;20491;-68
2022/01/12 09:59:23;;;;;;;34.28;13.60;;;;;;;-2.07;64.56;100478.13;5108393;28;20036;-67
2022/01/12 10:01:49;;;;;;;34.30;14.30;;;;;;;-2.10;64.69;100464.00;5109173;28;20412;-67
2022/01/12 10:04:27;;;;;;;28.85;13.15;;;;;;;-2.05;64.49;100452.78;5109414;28;20303;-67
2022/01/12 10:06:56;;;;;;;25.45;12.45;;;;;;;-1.90;64.58;100438.66;5109162;27;20031;-66
2022/01/12 10:09:33;;;;;;;35.05;16.77;;;;;;;-1.77;64.98;100433.66;5106416;28;20024;-68
2022/01/12 10:12:01;;;;;;;35.88;16.08;;;;;;;-1.61;64.72;100430.13;5110046;28;20034;-67
2022/01/12 10:14:49;;;;;;;31.48;14.25;;;;;;;-1.43;64.71;100438.03;5110745;28;20068;-69
2022/01/12 10:17:16;;;;;;;33.08;15.25;;;;;;;-1.30;64.30;100432.13;5110077;28;20502;-68
2022/01/12 10:19:42;;;;;;;23.75;10.88;;;;;;;-1.28;64.68;100440.06;5110358;28;20030;-69
2022/01/12 10:22:10;;;;;;;94.78;29.05;;;;;;;-1.35;63.88;100446.13;5108941;27;20110;-67
2022/01/12 10:24:41;;;;;;;32.05;12.93;;;;;;;-1.44;63.87;100451.69;5106872;28;20040;-67
2022/01/12 10:27:12;;;;;;;34.78;13.80;;;;;;;-1.57;63.76;100452.16;5110928;28;20110;-68
2022/01/12 10:29:37;;;;;;;38.95;13.95;;;;;;;-1.66;63.57;100451.31;5110015;28;20091;-66
2022/01/12 10:32:05;;;;;;;35.22;12.93;;;;;;;-1.69;63.11;100443.56;5089372;28;20035;-66
2022/01/12 10:34:43;;;;;;;47.85;17.15;;;;;;;-1.70;63.78;100441.91;5110316;28;20028;-68
2022/01/12 10:37:10;;;;;;;29.17;11.20;;;;;;;-1.68;63.35;100439.88;5110493;28;20034;-65
2022/01/12 10:39:41;;;;;;;27.15;10.98;;;;;;;-1.65;63.68;100432.34;5107671;28;20027;-67
2022/01/12 10:42:10;;;;;;;56.00;19.98;;;;;;;-1.66;63.43;100422.56;5109183;28;20123;-68
2022/01/12 10:44:46;;;;;;;26.40;11.53;;;;;;;-1.67;63.18;100425.41;5108251;28;20555;-66
2022/01/12 10:47:18;;;;;;;21.92;9.65;;;;;;;-1.71;63.06;100422.22;5108434;28;20023;-67
2022/01/12 10:49:53;;;;;;;21.88;9.25;;;;;;;-1.69;62.36;100425.59;5107557;27;20721;-67
2022/01/12 10:52:19;;;;;;;20.52;10.05;;;;;;;-1.69;62.75;100419.34;5108986;28;20024;-66
2022/01/12 10:54:54;;;;;;;21.15;9.82;;;;;;;-1.68;63.04;100419.22;5091543;28;20406;-66
2022/01/12 10:57:19;;;;;;;20.88;10.00;;;;;;;-1.62;63.10;100412.31;5110174;28;20027;-67
2022/01/12 11:00:03;;;;;;;20.38;9.23;;;;;;;-1.59;63.28;100409.28;5090062;28;20547;-67
2022/01/12 11:02:30;;;;;;;20.20;9.18;;;;;;;-1.50;62.99;100404.72;5109625;28;20032;-71
2022/01/12 11:04:59;;;;;;;20.13;9.05;;;;;;;-1.42;62.93;100411.94;5109894;28;20372;-68
2022/01/12 11:07:26;;;;;;;29.23;10.13;;;;;;;-1.37;62.88;100415.84;5109902;28;20035;-68
2022/01/12 11:09:57;;;;;;;23.50;9.77;;;;;;;-1.35;62.66;100421.88;5109720;28;20277;-68
2022/01/12 11:12:23;;;;;;;33.90;15.07;;;;;;;-1.35;62.58;100423.72;5110162;28;20032;-68
2022/01/12 11:14:50;;;;;;;46.50;21.02;;;;;;;-1.44;61.89;100420.19;5109186;28;20031;-68
2022/01/12 11:17:16;;;;;;;49.47;18.17;;;;;;;-1.52;61.83;100417.50;5108406;28;20027;-68
2022/01/12 11:19:55;;;;;;;26.40;10.52;;;;;;;-1.53;61.82;100403.22;5109294;28;20034;-68
2022/01/12 11:22:53;;;;;;;22.77;9.07;;;;;;;-1.46;62.14;100402.56;5109441;27;20042;-68
2022/01/12 11:25:30;;;;;;;20.13;9.38;;;;;;;-1.38;62.01;100408.75;5106340;27;20026;-68
2022/01/12 11:28:21;;;;;;;20.55;9.40;;;;;;;-1.37;62.16;100414.97;5109526;28;20432;-68
2022/01/12 11:30:51;;;;;;;28.48;11.23;;;;;;;-1.37;61.92;100420.34;5110839;27;20015;-69
2022/01/12 11:33:29;;;;;;;54.28;17.58;;;;;;;-1.49;61.77;100422.56;5109563;28;20053;-69
2022/01/12 11:35:55;;;;;;;32.30;12.60;;;;;;;-1.52;61.22;100421.06;5091032;28;20035;-69
2022/01/12 11:38:23;;;;;;;31.98;12.68;;;;;;;-1.44;61.72;100422.91;5108895;28;20141;-68
2022/01/12 11:40:50;;;;;;;27.88;12.15;;;;;;;-1.47;61.61;100414.34;5110515;27;20503;-69
2022/01/12 11:43:21;;;;;;;31.88;14.45;;;;;;;-1.34;61.82;100411.94;5112010;27;20031;-69
2022/01/12 11:46:11;;;;;;;37.10;15.05;;;;;;;-1.21;61.83;100398.81;5085062;28;20019;-68
2022/01/12 11:48:42;;;;;;;40.00;15.55;;;;;;;-1.12;61.25;100402.31;5106620;28;20390;-68
2022/01/12 11:51:08;;;;;;;29.63;10.90;;;;;;;-1.00;61.35;100401.97;5106406;28;20023;-68
2022/01/12 11:53:50;;;;;;;25.30;10.85;;;;;;;-1.03;60.56;100402.31;5106783;28;20042;-67
2022/01/12 11:56:22;;;;;;;24.27;10.48;;;;;;;-1.07;59.64;100401.81;5107519;28;20028;-67
2022/01/12 11:58:50;;;;;;;33.13;13.98;;;;;;;-1.14;60.02;100406.22;5107677;28;20054;-68
2022/01/12 12:01:16;;;;;;;22.92;9.48;;;;;;;-1.11;60.24;100401.31;5090181;28;20509;-67
2022/01/12 12:03:41;;;;;;;21.08;9.13;;;;;;;-1.10;59.79;100394.09;5109658;28;20031;-67
2022/01/12 12:06:19;;;;;;;28.00;11.82;;;;;;;-1.12;59.79;100391.53;5109342;28;20399;-69
2022/01/12 12:09:03;;;;;;;23.80;9.73;;;;;;;-1.10;59.71;100380.63;5109345;28;20138;-68
2022/01/12 12:11:31;;;;;;;16.00;8.02;;;;;;;-1.02;59.94;100383.28;5089827;28;20406;-69
2022/01/12 12:14:06;;;;;;;18.73;9.07;;;;;;;-1.00;59.68;100375.84;5109471;28;20442;-69
2022/01/12 12:16:33;;;;;;;15.13;7.43;;;;;;;-0.97;59.40;100377.38;5108597;28;20026;-68
2022/01/12 12:19:01;;;;;;;25.02;11.43;;;;;;;-0.95;59.70;100378.06;5108222;28;20028;-68
2022/01/12 12:21:27;;;;;;;35.72;14.13;;;;;;;-0.96;59.28;100381.75;5089505;28;20632;-68
2022/01/12 12:23:52;;;;;;;26.35;10.73;;;;;;;-1.07;58.88;100386.50;5111803;28;20032;-69
2022/01/12 12:26:20;;;;;;;17.80;8.73;;;;;;;-1.22;57.12;100386.34;5109704;28;20523;-68
2022/01/12 12:28:56;;;;;;;15.43;7.60;;;;;;;-1.39;58.11;100380.16;5112230;27;20165;-69
2022/01/12 12:31:26;;;;;;;19.30;8.20;;;;;;;-1.44;58.57;100377.16;5112510;28;20039;-69